Time;durP1;ratioP1;P1;durP2;ratioP2;P2;SDS_P1;SDS_P2;PMS_P1;PMS_P2;Temp;Humidity;BMP_temperature;BMP_pressure;BME280_temperature;BME280_humidity;BME280_pressure;Samples;Min_cycle;Max_cycle;Signal;HPM_P1;HPM_P2
2023/07/02 00:01:51;;;;;;;2.57;1.53;;;;;;;;;;5072564;28;20626;-28
2023/07/02 00:04:20;;;;;;;4.77;1.80;;;;;;;;;;5061875;28;20216;-26
2023/07/02 00:06:48;;;;;;;2.20;1.83;;;;;;;;;;5068853;28;20211;-28
2023/07/02 00:09:15;;;;;;;2.77;1.97;;;;;;;;;;5065766;28;20233;-29
2023/07/02 00:11:44;;;;;;;4.03;2.23;;;;;;;;;;5061157;28;20215;-30
2023/07/02 00:14:13;;;;;;;6.10;2.00;;;;;;;;;;5175348;22;20244;-23
2023/07/02 00:16:41;;;;;;;2.10;1.93;;;;;;;;;;5093096;28;20293;-26
2023/07/02 00:19:08;;;;;;;2.37;1.87;;;;;;;;;;5063765;28;20231;-28
2023/07/02 00:21:37;;;;;;;4.40;1.90;;;;;;;;;;5066806;28;20656;-25
2023/07/02 00:24:04;;;;;;;4.20;1.93;;;;;;;;;;5064386;28;20233;-26
2023/07/02 00:26:31;;;;;;;2.00;1.90;;;;;;;;;;5061323;28;20214;-26
2023/07/02 00:28:59;;;;;;;5.57;2.20;;;;;;;;;;5069730;28;20236;-27
2023/07/02 00:31:27;;;;;;;2.60;2.10;;;;;;;;;;5069726;28;20207;-29
2023/07/02 00:33:54;;;;;;;2.13;1.83;;;;;;;;;;5059860;28;20196;-25
2023/07/02 00:36:21;;;;;;;2.53;2.33;;;;;;;;;;5066132;28;20218;-25
2023/07/02 00:38:49;;;;;;;5.23;2.07;;;;;;;;;;5065279;28;20219;-25
2023/07/02 00:41:17;;;;;;;6.93;2.13;;;;;;;;;;5064812;28;20326;-26
2023/07/02 00:43:44;;;;;;;2.13;1.90;;;;;;;;;;5069641;28;20565;-27
2023/07/02 00:46:17;;;;;;;2.67;1.87;;;;;;;;;;5069424;28;20684;-25
2023/07/02 00:48:47;;;;;;;2.40;1.93;;;;;;;;;;5060246;28;20231;-27
2023/07/02 00:51:16;;;;;;;1.90;1.50;;;;;;;;;;5069373;28;20629;-27
2023/07/02 00:53:43;;;;;;;3.80;1.90;;;;;;;;;;5067545;28;20215;-25
2023/07/02 00:56:10;;;;;;;2.07;1.87;;;;;;;;;;5064392;28;20392;-26
2023/07/02 00:58:39;;;;;;;2.33;2.10;;;;;;;;;;5071087;28;20219;-28
2023/07/02 01:01:06;;;;;;;4.70;1.90;;;;;;;;;;5068648;28;20216;-28
2023/07/02 01:03:37;;;;;;;3.27;2.00;;;;;;;;;;5071265;28;20211;-27
2023/07/02 01:06:05;;;;;;;3.07;2.17;;;;;;;;;;5069923;28;20730;-24
2023/07/02 01:08:33;;;;;;;5.70;2.63;;;;;;;;;;5070246;28;20232;-27
2023/07/02 01:11:01;;;;;;;2.10;1.87;;;;;;;;;;5063880;28;20212;-26
2023/07/02 01:13:28;;;;;;;2.97;1.70;;;;;;;;;;5060310;28;20216;-27
2023/07/02 01:15:56;;;;;;;2.37;2.17;;;;;;;;;;5069323;28;20741;-24
2023/07/02 01:18:23;;;;;;;2.10;1.90;;;;;;;;;;5066693;28;20227;-27
2023/07/02 01:20:53;;;;;;;1.83;1.73;;;;;;;;;;5061792;28;20208;-25
2023/07/02 01:23:20;;;;;;;3.23;1.80;;;;;;;;;;5066944;28;20203;-24
2023/07/02 01:25:47;;;;;;;1.83;1.73;;;;;;;;;;5062820;28;20208;-29
2023/07/02 01:28:14;;;;;;;1.57;1.47;;;;;;;;;;5068001;28;20234;-27
2023/07/02 01:30:42;;;;;;;3.13;1.87;;;;;;;;;;5069640;28;20207;-26
2023/07/02 01:33:09;;;;;;;2.67;1.90;;;;;;;;;;5063677;28;20200;-28
2023/07/02 01:35:36;;;;;;;2.20;1.77;;;;;;;;;;5058807;28;20562;-26
2023/07/02 01:38:05;;;;;;;3.43;2.37;;;;;;;;;;5068582;28;20228;-26
2023/07/02 01:40:32;;;;;;;2.50;2.30;;;;;;;;;;5061005;28;20227;-27
2023/07/02 01:42:59;;;;;;;1.93;1.77;;;;;;;;;;5066305;28;20214;-27
2023/07/02 01:45:27;;;;;;;9.70;2.33;;;;;;;;;;5071038;28;20208;-23
2023/07/02 01:47:54;;;;;;;2.20;2.10;;;;;;;;;;5071408;28;20224;-25
2023/07/02 01:50:21;;;;;;;3.03;2.40;;;;;;;;;;5063679;28;20627;-24
2023/07/02 01:52:48;;;;;;;2.57;1.77;;;;;;;;;;5068724;28;20207;-25
2023/07/02 01:55:17;;;;;;;3.57;2.27;;;;;;;;;;5065475;28;20220;-24
2023/07/02 01:57:44;;;;;;;2.40;2.17;;;;;;;;;;5068751;28;20228;-25
2023/07/02 02:00:12;;;;;;;4.17;2.13;;;;;;;;;;5072876;28;20213;-23
2023/07/02 02:02:39;;;;;;;2.20;2.00;;;;;;;;;;5073053;28;20204;-25
2023/07/02 02:05:07;;;;;;;3.03;2.07;;;;;;;;;;5064923;28;20328;-28
2023/07/02 02:07:35;;;;;;;2.10;2.00;;;;;;;;;;5063679;28;20266;-26
2023/07/02 02:10:02;;;;;;;1.90;1.80;;;;;;;;;;5064307;28;20737;-28
2023/07/02 02:12:31;;;;;;;1.73;1.53;;;;;;;;;;5071395;28;20434;-25
2023/07/02 02:14:58;;;;;;;3.43;2.03;;;;;;;;;;5072348;28;20297;-25
2023/07/02 02:17:25;;;;;;;3.93;2.30;;;;;;;;;;5072158;28;20214;-27
2023/07/02 02:19:52;;;;;;;4.70;1.90;;;;;;;;;;5067393;28;20210;-28
2023/07/02 02:22:19;;;;;;;1.90;1.77;;;;;;;;;;5072143;28;20203;-26
2023/07/02 02:24:47;;;;;;;2.17;1.97;;;;;;;;;;5066798;28;20234;-26
2023/07/02 02:27:14;;;;;;;2.03;1.93;;;;;;;;;;5068867;28;20306;-25
2023/07/02 02:29:42;;;;;;;2.30;2.07;;;;;;;;;;5071829;28;20219;-26
2023/07/02 02:32:09;;;;;;;2.00;1.80;;;;;;;;;;5069350;28;20207;-26
2023/07/02 02:34:36;;;;;;;2.20;2.00;;;;;;;;;;5071965;28;20204;-25
2023/07/02 02:37:04;;;;;;;1.63;1.53;;;;;;;;;;5071436;28;20205;-27
2023/07/02 02:39:31;;;;;;;1.70;1.60;;;;;;;;;;5064452;28;20221;-25
2023/07/02 02:41:58;;;;;;;4.67;2.23;;;;;;;;;;5070471;28;20207;-25
2023/07/02 02:44:25;;;;;;;2.03;1.77;;;;;;;;;;5072029;28;20204;-24
2023/07/02 02:46:53;;;;;;;2.87;2.03;;;;;;;;;;5069053;28;20207;-25
2023/07/02 02:49:20;;;;;;;2.00;1.87;;;;;;;;;;5064423;28;20239;-28
2023/07/02 02:51:48;;;;;;;2.57;1.90;;;;;;;;;;5071960;28;20671;-26
2023/07/02 02:54:15;;;;;;;2.17;1.83;;;;;;;;;;5067262;28;20215;-24
2023/07/02 02:56:43;;;;;;;2.17;1.97;;;;;;;;;;5063515;28;20207;-25
2023/07/02 02:59:10;;;;;;;6.67;2.20;;;;;;;;;;5070914;28;20218;-26
2023/07/02 03:01:37;;;;;;;1.90;1.80;;;;;;;;;;5071955;28;20214;-24
2023/07/02 03:04:08;;;;;;;2.60;2.40;;;;;;;;;;5064793;28;20203;-28
2023/07/02 03:06:35;;;;;;;5.47;2.00;;;;;;;;;;5065063;28;20278;-24
2023/07/02 03:09:02;;;;;;;4.67;2.27;;;;;;;;;;5064412;28;20222;-25
2023/07/02 03:11:29;;;;;;;4.17;2.20;;;;;;;;;;5064679;28;20215;-27
2023/07/02 03:13:56;;;;;;;4.07;2.40;;;;;;;;;;5071739;28;20222;-25
2023/07/02 03:16:23;;;;;;;5.87;2.47;;;;;;;;;;5070736;28;20206;-26
2023/07/02 03:18:50;;;;;;;3.33;2.70;;;;;;;;;;5057520;28;20230;-28
2023/07/02 03:21:19;;;;;;;3.27;2.40;;;;;;;;;;5070978;28;20201;-26
2023/07/02 03:23:46;;;;;;;2.53;2.10;;;;;;;;;;5071606;28;20221;-25
2023/07/02 03:26:14;;;;;;;1.80;1.70;;;;;;;;;;5066844;28;20202;-27
2023/07/02 03:28:41;;;;;;;2.60;2.00;;;;;;;;;;5070451;28;20227;-28
2023/07/02 03:31:08;;;;;;;6.20;2.23;;;;;;;;;;5070382;28;20206;-26
2023/07/02 03:33:35;;;;;;;1.90;1.80;;;;;;;;;;5065698;28;20204;-26
2023/07/02 03:36:02;;;;;;;5.93;1.93;;;;;;;;;;5069053;28;20213;-27
2023/07/02 03:38:30;;;;;;;2.43;1.83;;;;;;;;;;5070045;28;20237;-26
2023/07/02 03:40:57;;;;;;;2.20;2.10;;;;;;;;;;5059386;28;20208;-24
2023/07/02 03:43:25;;;;;;;2.03;1.60;;;;;;;;;;5070459;28;20229;-27
2023/07/02 03:45:53;;;;;;;2.13;2.00;;;;;;;;;;5070121;28;20277;-31
2023/07/02 03:48:20;;;;;;;2.10;1.93;;;;;;;;;;5068486;28;20694;-28
2023/07/02 03:50:47;;;;;;;2.07;1.80;;;;;;;;;;5063251;28;20228;-26
2023/07/02 03:53:14;;;;;;;2.33;2.03;;;;;;;;;;5067196;28;20207;-28
2023/07/02 03:55:43;;;;;;;2.63;1.90;;;;;;;;;;5060613;28;20290;-28
2023/07/02 03:58:10;;;;;;;1.77;1.40;;;;;;;;;;5066318;28;20591;-24
2023/07/02 04:00:38;;;;;;;2.63;2.03;;;;;;;;;;5070085;28;20212;-25
2023/07/02 04:03:05;;;;;;;2.53;1.80;;;;;;;;;;5070019;28;20210;-24
2023/07/02 04:05:32;;;;;;;2.70;1.90;;;;;;;;;;5066717;28;20233;-26
2023/07/02 04:08:00;;;;;;;2.43;2.00;;;;;;;;;;5071564;28;20218;-28
2023/07/02 04:10:27;;;;;;;1.80;1.70;;;;;;;;;;5064141;28;20231;-26
2023/07/02 04:12:55;;;;;;;2.80;2.27;;;;;;;;;;5065410;28;20218;-25
2023/07/02 04:15:24;;;;;;;3.23;1.60;;;;;;;;;;5069720;28;20202;-25
2023/07/02 04:17:51;;;;;;;2.53;1.50;;;;;;;;;;5067292;28;20766;-25
2023/07/02 04:20:18;;;;;;;3.27;2.23;;;;;;;;;;5063101;28;20202;-26
2023/07/02 04:22:45;;;;;;;2.03;1.70;;;;;;;;;;5069487;28;20210;-28
2023/07/02 04:25:14;;;;;;;2.63;1.53;;;;;;;;;;5062444;28;20213;-26
2023/07/02 04:27:42;;;;;;;3.30;1.73;;;;;;;;;;5067611;28;20234;-26
2023/07/02 04:30:11;;;;;;;2.37;1.80;;;;;;;;;;5072212;28;20229;-26
2023/07/02 04:32:39;;;;;;;2.93;1.90;;;;;;;;;;5072070;28;20210;-28
2023/07/02 04:35:06;;;;;;;4.10;1.83;;;;;;;;;;5064098;28;20205;-26
2023/07/02 04:37:34;;;;;;;6.43;1.90;;;;;;;;;;5071137;28;20209;-24
2023/07/02 04:40:02;;;;;;;2.43;1.63;;;;;;;;;;5062009;28;20213;-27
2023/07/02 04:42:31;;;;;;;2.83;1.83;;;;;;;;;;5067460;28;20305;-25
2023/07/02 04:45:02;;;;;;;3.27;1.90;;;;;;;;;;5071984;28;20209;-26
2023/07/02 04:47:31;;;;;;;3.40;2.20;;;;;;;;;;5071153;28;20252;-25
2023/07/02 04:49:58;;;;;;;4.17;2.20;;;;;;;;;;5065784;28;20217;-23
2023/07/02 04:52:25;;;;;;;2.80;1.90;;;;;;;;;;5071437;28;20213;-27
2023/07/02 04:54:52;;;;;;;2.70;2.00;;;;;;;;;;5066927;28;20210;-24
2023/07/02 04:57:19;;;;;;;3.93;2.43;;;;;;;;;;5067178;28;20211;-25
2023/07/02 04:59:47;;;;;;;4.03;2.07;;;;;;;;;;5071769;28;20213;-23
2023/07/02 05:02:14;;;;;;;5.77;2.30;;;;;;;;;;5072246;28;20627;-25
2023/07/02 05:04:44;;;;;;;4.90;2.40;;;;;;;;;;5064107;28;20206;-27
2023/07/02 05:07:11;;;;;;;3.33;2.10;;;;;;;;;;5062726;28;20214;-27
2023/07/02 05:09:38;;;;;;;2.60;2.30;;;;;;;;;;5065362;28;20217;-27
2023/07/02 05:12:05;;;;;;;3.20;2.10;;;;;;;;;;5067143;28;20212;-26
2023/07/02 05:14:32;;;;;;;3.30;2.13;;;;;;;;;;5071007;28;20206;-27
2023/07/02 05:16:59;;;;;;;7.77;2.70;;;;;;;;;;5071203;28;20566;-27
2023/07/02 05:19:27;;;;;;;4.10;2.20;;;;;;;;;;5063562;28;20229;-24
2023/07/02 05:21:55;;;;;;;4.17;2.20;;;;;;;;;;5065777;28;20206;-26
2023/07/02 05:24:22;;;;;;;2.90;1.90;;;;;;;;;;5072547;28;20619;-23
2023/07/02 05:26:50;;;;;;;3.47;2.40;;;;;;;;;;5070105;28;20202;-24
2023/07/02 05:29:17;;;;;;;2.43;2.23;;;;;;;;;;5075103;28;20222;-23
2023/07/02 05:31:44;;;;;;;3.00;2.10;;;;;;;;;;5075318;28;20343;-26
2023/07/02 05:34:12;;;;;;;2.60;2.10;;;;;;;;;;5065942;28;20207;-24
2023/07/02 05:36:39;;;;;;;4.33;2.20;;;;;;;;;;5074588;28;20563;-26
2023/07/02 05:39:08;;;;;;;2.40;2.20;;;;;;;;;;5069291;28;20224;-26
2023/07/02 05:41:35;;;;;;;2.43;2.20;;;;;;;;;;5066385;28;20206;-27
2023/07/02 05:44:02;;;;;;;5.20;2.30;;;;;;;;;;5074952;28;20205;-25
2023/07/02 05:46:29;;;;;;;2.90;2.03;;;;;;;;;;5074604;28;20202;-26
2023/07/02 05:48:57;;;;;;;2.87;2.40;;;;;;;;;;5070455;28;20227;-24
2023/07/02 05:51:24;;;;;;;3.53;1.93;;;;;;;;;;5063017;28;20226;-27
2023/07/02 05:53:51;;;;;;;3.73;2.23;;;;;;;;;;5071584;28;20202;-26
2023/07/02 05:56:20;;;;;;;3.17;2.10;;;;;;;;;;5067975;28;20216;-26
2023/07/02 05:58:47;;;;;;;3.47;2.20;;;;;;;;;;5074657;28;20230;-26
2023/07/02 06:01:15;;;;;;;4.17;2.20;;;;;;;;;;5074705;28;20199;-28
2023/07/02 06:03:43;;;;;;;2.37;2.03;;;;;;;;;;5071352;28;20212;-23
2023/07/02 06:06:11;;;;;;;3.07;2.33;;;;;;;;;;5068591;28;20220;-28
2023/07/02 06:08:38;;;;;;;2.77;2.20;;;;;;;;;;5070703;28;20227;-28
2023/07/02 06:11:05;;;;;;;4.33;2.37;;;;;;;;;;5063313;28;20251;-27
2023/07/02 06:13:33;;;;;;;2.83;2.20;;;;;;;;;;5073516;28;20206;-26
2023/07/02 06:16:00;;;;;;;3.17;2.30;;;;;;;;;;5073429;28;20633;-26
2023/07/02 06:18:28;;;;;;;4.40;2.50;;;;;;;;;;5308858;22;1106192;-34
2023/07/02 06:20:55;;;;;;;2.73;2.40;;;;;;;;;;5096473;28;20259;-33
2023/07/02 06:23:23;;;;;;;5.17;2.10;;;;;;;;;;5092227;28;20257;-33
2023/07/02 06:25:51;;;;;;;2.37;1.97;;;;;;;;;;5102126;28;20220;-33
2023/07/02 06:28:18;;;;;;;4.47;2.43;;;;;;;;;;5108114;28;20701;-32
2023/07/02 06:30:47;;;;;;;4.50;2.40;;;;;;;;;;5092255;28;20332;-35
2023/07/02 06:33:14;;;;;;;3.13;2.70;;;;;;;;;;5090193;28;20205;-32
2023/07/02 06:35:41;;;;;;;4.33;2.30;;;;;;;;;;5104930;28;20199;-34
2023/07/02 06:38:08;;;;;;;5.67;2.90;;;;;;;;;;5094632;28;20231;-35
2023/07/02 06:40:36;;;;;;;3.50;2.70;;;;;;;;;;5099599;28;20225;-34
2023/07/02 06:43:03;;;;;;;5.27;2.50;;;;;;;;;;5093416;28;20283;-33
2023/07/02 06:45:30;;;;;;;3.43;2.63;;;;;;;;;;5091719;28;20212;-35
2023/07/02 06:47:58;;;;;;;3.87;2.57;;;;;;;;;;5091841;28;20220;-35
2023/07/02 06:50:25;;;;;;;3.87;3.10;;;;;;;;;;5104476;28;20216;-31
2023/07/02 06:52:52;;;;;;;6.70;3.03;;;;;;;;;;5098001;28;20196;-32
2023/07/02 06:55:20;;;;;;;6.00;2.90;;;;;;;;;;5099729;28;20212;-33
2023/07/02 06:57:47;;;;;;;7.83;4.30;;;;;;;;;;5108157;28;20229;-32
2023/07/02 07:00:15;;;;;;;7.33;4.10;;;;;;;;;;5112133;28;20195;-35
2023/07/02 07:02:42;;;;;;;7.27;4.53;;;;;;;;;;5112197;28;20211;-34
2023/07/02 07:05:11;;;;;;;7.70;4.83;;;;;;;;;;5104904;28;20212;-33
2023/07/02 07:07:38;;;;;;;7.27;4.13;;;;;;;;;;5102828;28;20212;-34
2023/07/02 07:10:06;;;;;;;9.17;4.10;;;;;;;;;;5094247;28;20226;-32
2023/07/02 07:12:33;;;;;;;8.30;5.10;;;;;;;;;;5104604;28;20204;-35
2023/07/02 07:15:00;;;;;;;6.30;4.30;;;;;;;;;;5107605;28;20231;-31
2023/07/02 07:17:27;;;;;;;8.60;4.80;;;;;;;;;;5107308;28;20247;-30
2023/07/02 07:19:54;;;;;;;10.07;4.50;;;;;;;;;;5105527;28;20200;-33
2023/07/02 07:22:23;;;;;;;12.00;5.27;;;;;;;;;;5095050;28;20196;-31
2023/07/02 07:24:50;;;;;;;7.57;4.83;;;;;;;;;;5095931;28;20294;-33
2023/07/02 07:27:17;;;;;;;9.83;5.20;;;;;;;;;;5108607;28;20200;-36
2023/07/02 07:29:44;;;;;;;10.20;5.40;;;;;;;;;;5113580;28;20202;-34
2023/07/02 07:32:11;;;;;;;9.77;5.60;;;;;;;;;;5113510;28;20213;-32
2023/07/02 07:34:38;;;;;;;10.57;5.93;;;;;;;;;;5103780;28;20637;-32
2023/07/02 07:37:06;;;;;;;11.60;5.80;;;;;;;;;;5110638;28;20204;-31
2023/07/02 07:39:34;;;;;;;11.30;5.80;;;;;;;;;;5089432;28;20226;-31
2023/07/02 07:42:01;;;;;;;10.00;5.63;;;;;;;;;;5094975;28;20199;-33
2023/07/02 07:44:29;;;;;;;11.50;6.77;;;;;;;;;;5098694;28;20211;-33
2023/07/02 07:46:56;;;;;;;13.93;6.90;;;;;;;;;;5090307;28;20215;-35
2023/07/02 07:49:23;;;;;;;12.80;7.30;;;;;;;;;;5089230;28;20230;-34
2023/07/02 07:51:51;;;;;;;12.17;7.97;;;;;;;;;;5096736;28;20304;-30
2023/07/02 07:54:18;;;;;;;13.47;7.60;;;;;;;;;;5105176;28;20261;-30
2023/07/02 07:56:47;;;;;;;15.37;8.80;;;;;;;;;;5100304;28;20238;-30
2023/07/02 07:59:14;;;;;;;12.00;6.30;;;;;;;;;;5099607;28;20223;-32
2023/07/02 08:01:41;;;;;;;13.60;7.33;;;;;;;;;;5111211;28;20196;-34
2023/07/02 08:04:09;;;;;;;14.43;7.40;;;;;;;;;;5105594;28;20208;-33
2023/07/02 08:06:36;;;;;;;13.00;7.07;;;;;;;;;;5098633;28;20196;-34
2023/07/02 08:09:03;;;;;;;15.40;8.40;;;;;;;;;;5091705;28;20226;-34
2023/07/02 08:11:31;;;;;;;11.25;7.22;;;;;;;;;;5098576;28;20244;-35
2023/07/02 08:14:00;;;;;;;11.70;7.33;;;;;;;;;;5105804;28;20203;-30
2023/07/02 08:16:27;;;;;;;11.75;7.30;;;;;;;;;;5111161;28;20211;-32
2023/07/02 08:18:54;;;;;;;15.13;8.50;;;;;;;;;;5101576;28;20255;-31
2023/07/02 08:21:22;;;;;;;13.60;8.65;;;;;;;;;;5101710;28;20227;-34
2023/07/02 08:23:49;;;;;;;12.80;7.90;;;;;;;;;;5106718;28;20202;-33
2023/07/02 08:26:16;;;;;;;13.52;7.60;;;;;;;;;;5105130;28;20210;-33
2023/07/02 08:28:43;;;;;;;10.80;7.57;;;;;;;;;;5110282;28;20211;-34
2023/07/02 08:31:12;;;;;;;15.30;7.70;;;;;;;;;;5110603;28;20222;-34
2023/07/02 08:33:39;;;;;;;12.38;8.07;;;;;;;;;;5099285;28;20192;-34
2023/07/02 08:36:06;;;;;;;13.10;8.45;;;;;;;;;;5093748;28;20215;-37
2023/07/02 08:38:34;;;;;;;13.38;7.93;;;;;;;;;;5089987;28;20213;-35
2023/07/02 08:41:01;;;;;;;15.88;8.60;;;;;;;;;;5098226;28;20263;-33
2023/07/02 08:43:30;;;;;;;14.15;8.13;;;;;;;;;;5100966;28;20204;-34
2023/07/02 08:45:57;;;;;;;16.90;9.30;;;;;;;;;;5110893;28;20210;-30
2023/07/02 08:48:29;;;;;;;13.15;7.93;;;;;;;;;;5107197;28;20231;-33
2023/07/02 08:50:56;;;;;;;16.88;8.48;;;;;;;;;;5108615;28;20259;-33
2023/07/02 08:53:29;;;;;;;15.00;9.10;;;;;;;;;;5102324;28;20203;-36
2023/07/02 08:55:56;;;;;;;13.88;8.02;;;;;;;;;;5100739;28;20297;-34
2023/07/02 08:58:23;;;;;;;14.30;8.60;;;;;;;;;;5104755;28;20237;-34
2023/07/02 09:01:06;;;;;;;12.93;7.30;;;;;;;;;;5114892;28;20220;-32
2023/07/02 09:03:36;;;;;;;15.15;7.82;;;;;;;;;;5108053;28;20200;-32
2023/07/02 09:06:04;;;;;;;15.38;8.98;;;;;;;;;;5106601;28;20275;-33
2023/07/02 09:08:33;;;;;;;14.35;7.43;;;;;;;;;;5113938;28;20222;-32
2023/07/02 09:11:07;;;;;;;19.73;9.50;;;;;;;;;;5101118;28;20370;-33
2023/07/02 09:13:43;;;;;;;15.45;9.40;;;;;;;;;;5102008;28;20615;-29
2023/07/02 09:16:21;;;;;;;14.07;9.32;;;;;;;;;;5094550;28;20581;-32
2023/07/02 09:18:57;;;;;;;16.30;8.88;;;;;;;;;;5093430;28;20236;-33
2023/07/02 09:21:27;;;;;;;13.45;8.70;;;;;;;;;;5100548;28;20197;-34
2023/07/02 09:23:54;;;;;;;14.55;8.05;;;;;;;;;;5106425;28;20221;-33
2023/07/02 09:26:21;;;;;;;12.80;8.85;;;;;;;;;;5093465;28;20205;-36
2023/07/02 09:28:49;;;;;;;15.63;9.35;;;;;;;;;;5108208;28;20223;-35
2023/07/02 09:31:16;;;;;;;13.35;7.88;;;;;;;;;;5113261;28;20267;-35
2023/07/02 09:33:44;;;;;;;11.90;8.80;;;;;;;;;;5103781;28;20202;-31
2023/07/02 09:36:13;;;;;;;15.38;9.63;;;;;;;;;;5106459;28;20196;-33
2023/07/02 09:38:41;;;;;;;14.15;8.75;;;;;;;;;;5093143;28;20235;-32
2023/07/02 09:41:09;;;;;;;13.88;8.48;;;;;;;;;;5100703;28;20203;-35
2023/07/02 09:43:36;;;;;;;13.68;7.75;;;;;;;;;;5101785;28;20198;-34
2023/07/02 09:46:04;;;;;;;18.70;9.00;;;;;;;;;;5093447;28;20216;-34
2023/07/02 09:48:34;;;;;;;14.70;8.20;;;;;;;;;;5097080;28;20224;-34
2023/07/02 09:51:01;;;;;;;13.73;8.45;;;;;;;;;;5114173;28;20716;-31
2023/07/02 09:53:30;;;;;;;15.45;8.63;;;;;;;;;;5104689;28;20209;-34
2023/07/02 09:55:58;;;;;;;15.05;8.77;;;;;;;;;;5108210;28;20280;-36
2023/07/02 09:58:25;;;;;;;17.73;9.43;;;;;;;;;;5113376;28;20694;-34
2023/07/02 10:00:52;;;;;;;15.50;8.25;;;;;;;;;;5115311;28;20202;-35
2023/07/02 10:03:29;;;;;;;14.27;8.25;;;;;;;;;;5111739;28;20204;-32
2023/07/02 10:06:04;;;;;;;13.90;8.55;;;;;;;;;;5106824;28;20228;-33
2023/07/02 10:08:32;;;;;;;17.63;9.05;;;;;;;;;;5115224;28;20226;-34
2023/07/02 10:11:08;;;;;;;10.70;7.10;;;;;;;;;;5097125;28;20216;-32
2023/07/02 10:13:35;;;;;;;16.08;8.52;;;;;;;;;;5098489;28;20192;-31
2023/07/02 10:16:03;;;;;;;13.75;8.50;;;;;;;;;;5115970;28;20215;-35
2023/07/02 10:18:30;;;;;;;13.00;7.95;;;;;;;;;;5107192;28;20259;-31
2023/07/02 10:20:57;;;;;;;14.95;8.45;;;;;;;;;;5099376;28;20204;-36
2023/07/02 10:23:35;;;;;;;14.10;7.88;;;;;;;;;;5094702;28;20635;-33
2023/07/02 10:26:11;;;;;;;18.00;9.35;;;;;;;;;;5100290;28;20204;-35
2023/07/02 10:28:38;;;;;;;13.65;8.07;;;;;;;;;;5094154;28;20303;-35
2023/07/02 10:31:05;;;;;;;13.48;8.93;;;;;;;;;;5094126;28;20235;-31
2023/07/02 10:33:33;;;;;;;19.60;9.10;;;;;;;;;;5102600;28;20202;-32
2023/07/02 10:36:00;;;;;;;15.10;9.80;;;;;;;;;;5101628;28;20463;-33
2023/07/02 10:38:27;;;;;;;19.83;10.48;;;;;;;;;;5094083;28;20220;-31
2023/07/02 10:41:00;;;;;;;17.40;9.75;;;;;;;;;;5099226;28;20201;-34
2023/07/02 10:43:28;;;;;;;20.27;11.70;;;;;;;;;;5111872;28;20211;-34
2023/07/02 10:45:55;;;;;;;20.30;10.43;;;;;;;;;;5094881;28;20205;-34
2023/07/02 10:48:22;;;;;;;15.77;10.50;;;;;;;;;;5098312;28;20238;-31
2023/07/02 10:50:50;;;;;;;19.63;10.60;;;;;;;;;;5108139;28;20204;-30
2023/07/02 10:53:17;;;;;;;16.67;11.07;;;;;;;;;;5106593;28;20215;-32
2023/07/02 10:55:44;;;;;;;19.88;11.05;;;;;;;;;;5104460;28;20210;-34
2023/07/02 10:58:14;;;;;;;16.30;10.63;;;;;;;;;;5091123;28;20219;-34
2023/07/02 11:00:47;;;;;;;15.65;11.48;;;;;;;;;;5111848;28;20208;-32
2023/07/02 11:03:18;;;;;;;18.30;10.40;;;;;;;;;;5106238;28;20208;-34
2023/07/02 11:05:46;;;;;;;14.75;8.82;;;;;;;;;;5106390;28;20203;-32
2023/07/02 11:08:13;;;;;;;17.90;11.20;;;;;;;;;;5111756;28;20226;-36
2023/07/02 11:10:40;;;;;;;19.98;11.98;;;;;;;;;;5097517;28;20205;-31
2023/07/02 11:13:16;;;;;;;18.13;11.63;;;;;;;;;;5101810;28;20278;-32
2023/07/02 11:15:45;;;;;;;17.20;9.73;;;;;;;;;;5094143;28;20231;-32
2023/07/02 11:18:12;;;;;;;16.92;10.85;;;;;;;;;;5092569;28;20243;-35
2023/07/02 11:20:40;;;;;;;20.23;11.20;;;;;;;;;;5103813;28;20200;-33
2023/07/02 11:23:18;;;;;;;19.73;10.57;;;;;;;;;;5109625;28;20249;-32
2023/07/02 11:25:55;;;;;;;18.23;11.35;;;;;;;;;;5096666;28;20201;-34
2023/07/02 11:28:24;;;;;;;16.45;10.07;;;;;;;;;;5103696;28;20310;-32
2023/07/02 11:30:51;;;;;;;12.10;7.30;;;;;;;;;;5114688;28;20208;-33
2023/07/02 11:33:18;;;;;;;15.25;10.43;;;;;;;;;;5114339;28;20224;-35
2023/07/02 11:35:45;;;;;;;17.45;11.05;;;;;;;;;;5104698;28;20287;-32
2023/07/02 11:38:12;;;;;;;15.70;10.10;;;;;;;;;;5109727;28;20221;-34
2023/07/02 11:40:40;;;;;;;15.18;10.77;;;;;;;;;;5098352;28;20205;-29
2023/07/02 11:43:07;;;;;;;15.98;9.80;;;;;;;;;;5104859;28;20244;-32
2023/07/02 11:45:36;;;;;;;19.42;10.50;;;;;;;;;;5113766;28;20206;-32
2023/07/02 11:48:03;;;;;;;14.95;9.25;;;;;;;;;;5099423;28;20270;-32
2023/07/02 11:50:31;;;;;;;16.40;8.35;;;;;;;;;;5103723;28;20262;-34
2023/07/02 11:52:58;;;;;;;10.95;7.93;;;;;;;;;;5113650;28;20216;-30
2023/07/02 11:55:25;;;;;;;14.32;8.93;;;;;;;;;;5103304;28;20212;-32
2023/07/02 11:57:52;;;;;;;16.35;9.20;;;;;;;;;;5103171;28;20217;-32
2023/07/02 12:00:20;;;;;;;12.70;8.50;;;;;;;;;;5110603;28;20203;-34
2023/07/02 12:02:48;;;;;;;12.82;8.60;;;;;;;;;;5103967;28;20668;-35
2023/07/02 12:05:15;;;;;;;13.25;8.60;;;;;;;;;;5104405;28;20204;-33
2023/07/02 12:07:42;;;;;;;12.20;8.40;;;;;;;;;;5092395;28;20220;-35
2023/07/02 12:10:10;;;;;;;11.30;7.95;;;;;;;;;;5094765;28;20233;-34
2023/07/02 12:12:37;;;;;;;15.77;9.55;;;;;;;;;;5095979;28;20220;-31
2023/07/02 12:15:04;;;;;;;15.10;8.32;;;;;;;;;;5113052;28;20195;-35
2023/07/02 12:17:31;;;;;;;14.05;8.40;;;;;;;;;;5103965;28;20211;-30
2023/07/02 12:20:00;;;;;;;13.05;8.48;;;;;;;;;;5173825;23;20223;-26
2023/07/02 12:22:27;;;;;;;13.43;8.80;;;;;;;;;;5071364;28;20207;-25
2023/07/02 12:24:56;;;;;;;19.20;9.93;;;;;;;;;;5066455;28;20204;-27
2023/07/02 12:27:25;;;;;;;15.27;9.32;;;;;;;;;;5071216;28;20302;-25
2023/07/02 12:29:52;;;;;;;14.60;9.35;;;;;;;;;;5093330;28;20209;-23
2023/07/02 12:32:19;;;;;;;14.60;9.18;;;;;;;;;;5092791;28;20717;-26
2023/07/02 12:34:46;;;;;;;12.43;8.80;;;;;;;;;;5083825;28;20657;-27
2023/07/02 12:37:17;;;;;;;14.23;8.27;;;;;;;;;;5076081;28;20206;-27
2023/07/02 12:39:44;;;;;;;12.00;8.05;;;;;;;;;;5080814;28;20249;-27
2023/07/02 12:42:12;;;;;;;13.35;8.57;;;;;;;;;;5080528;28;20492;-27
2023/07/02 12:44:39;;;;;;;11.45;8.57;;;;;;;;;;5072656;28;20206;-26
2023/07/02 12:47:06;;;;;;;12.32;6.82;;;;;;;;;;5076324;28;20212;-26
2023/07/02 12:49:33;;;;;;;14.27;8.85;;;;;;;;;;5071681;28;20261;-27
2023/07/02 12:52:00;;;;;;;16.55;9.23;;;;;;;;;;5080937;28;20574;-24
2023/07/02 12:54:29;;;;;;;13.38;9.18;;;;;;;;;;5070141;28;20231;-27
2023/07/02 12:56:56;;;;;;;16.08;9.35;;;;;;;;;;5081387;28;20201;-27
2023/07/02 12:59:23;;;;;;;15.85;8.75;;;;;;;;;;5073712;28;20222;-24
2023/07/02 13:01:50;;;;;;;13.23;8.95;;;;;;;;;;5071154;28;20203;-27
2023/07/02 13:04:17;;;;;;;15.40;8.15;;;;;;;;;;5082466;28;20202;-24
2023/07/02 13:06:45;;;;;;;13.60;7.90;;;;;;;;;;5083524;28;20197;-24
2023/07/02 13:09:12;;;;;;;10.43;6.80;;;;;;;;;;5085793;28;20239;-26
2023/07/02 13:11:41;;;;;;;13.90;7.32;;;;;;;;;;5076301;28;20666;-26
2023/07/02 13:14:08;;;;;;;12.85;8.60;;;;;;;;;;5088288;28;20202;-24
2023/07/02 13:16:35;;;;;;;14.02;9.43;;;;;;;;;;5092097;28;20231;-25
2023/07/02 13:19:02;;;;;;;12.60;8.07;;;;;;;;;;5087293;28;20229;-24
2023/07/02 13:21:29;;;;;;;12.80;6.72;;;;;;;;;;5073012;28;20215;-27
2023/07/02 13:23:56;;;;;;;14.48;9.13;;;;;;;;;;5069274;28;20212;-24
2023/07/02 13:26:23;;;;;;;12.43;7.68;;;;;;;;;;5081229;28;20212;-26
2023/07/02 13:28:52;;;;;;;12.30;7.93;;;;;;;;;;5077343;28;20292;-24
2023/07/02 13:31:19;;;;;;;16.13;8.85;;;;;;;;;;5089773;28;20207;-28
2023/07/02 13:33:46;;;;;;;13.05;8.20;;;;;;;;;;5076055;28;20237;-27
2023/07/02 13:36:13;;;;;;;14.23;8.85;;;;;;;;;;5087872;28;20206;-28
2023/07/02 13:38:41;;;;;;;14.48;7.90;;;;;;;;;;5089317;28;20224;-25
2023/07/02 13:41:08;;;;;;;13.07;8.18;;;;;;;;;;5072341;28;20302;-26
2023/07/02 13:43:35;;;;;;;14.77;8.73;;;;;;;;;;5081718;28;20195;-25
2023/07/02 13:46:04;;;;;;;11.73;7.85;;;;;;;;;;5074725;28;20211;-24
2023/07/02 13:48:31;;;;;;;13.15;8.20;;;;;;;;;;5073812;28;20808;-22
2023/07/02 13:50:58;;;;;;;15.85;10.02;;;;;;;;;;5074806;28;20215;-27
2023/07/02 13:53:25;;;;;;;14.32;8.68;;;;;;;;;;5075182;28;20219;-26
2023/07/02 13:55:52;;;;;;;17.27;9.02;;;;;;;;;;5085220;28;20509;-27
2023/07/02 13:58:19;;;;;;;12.63;8.57;;;;;;;;;;5074166;28;20220;-28
2023/07/02 14:00:48;;;;;;;12.27;7.80;;;;;;;;;;5075395;28;20210;-22
2023/07/02 14:03:15;;;;;;;14.32;9.05;;;;;;;;;;5078415;28;20208;-26
2023/07/02 14:05:42;;;;;;;12.52;7.75;;;;;;;;;;5089866;28;20202;-26
2023/07/02 14:08:10;;;;;;;12.98;8.48;;;;;;;;;;5094356;28;20689;-28
2023/07/02 14:10:37;;;;;;;12.05;8.70;;;;;;;;;;5081293;28;20200;-27
2023/07/02 14:13:05;;;;;;;14.98;8.27;;;;;;;;;;5075242;28;20228;-26
2023/07/02 14:15:32;;;;;;;15.68;9.30;;;;;;;;;;5095052;28;20241;-22
2023/07/02 14:18:00;;;;;;;15.93;8.55;;;;;;;;;;5092874;28;20231;-24
2023/07/02 14:20:27;;;;;;;13.85;8.75;;;;;;;;;;5078560;28;20202;-25
2023/07/02 14:22:54;;;;;;;12.85;8.70;;;;;;;;;;5074544;28;20198;-28
2023/07/02 14:25:22;;;;;;;11.48;6.68;;;;;;;;;;5071821;28;20223;-25
2023/07/02 14:27:49;;;;;;;15.30;8.65;;;;;;;;;;5074276;28;20220;-24
2023/07/02 14:30:16;;;;;;;13.52;9.10;;;;;;;;;;5074768;28;20731;-28
2023/07/02 14:32:44;;;;;;;10.55;6.05;;;;;;;;;;5073657;28;20228;-27
2023/07/02 14:35:12;;;;;;;13.63;8.63;;;;;;;;;;5083453;28;20228;-25
2023/07/02 14:37:39;;;;;;;12.63;7.97;;;;;;;;;;5073553;28;20223;-27
2023/07/02 14:40:07;;;;;;;12.98;9.18;;;;;;;;;;5073238;28;20435;-26